sensor_id;sensor_type;location;lat;lon;timestamp;temperature;humidity
14415;DHT22;7307;50.852;4.314;2022-10-31T00:01:35;22.30;65.00
14415;DHT22;7307;50.852;4.314;2022-10-31T00:04:02;22.30;65.00
14415;DHT22;7307;50.852;4.314;2022-10-31T00:06:28;22.30;65.00
14415;DHT22;7307;50.852;4.314;2022-10-31T00:08:57;22.30;65.00
14415;DHT22;7307;50.852;4.314;2022-10-31T00:11:23;22.30;65.00
14415;DHT22;7307;50.852;4.314;2022-10-31T00:13:49;22.30;65.00
14415;DHT22;7307;50.852;4.314;2022-10-31T00:16:22;22.20;65.00
14415;DHT22;7307;50.852;4.314;2022-10-31T00:18:49;22.30;65.10
14415;DHT22;7307;50.852;4.314;2022-10-31T00:21:15;22.30;65.00
14415;DHT22;7307;50.852;4.314;2022-10-31T00:23:40;22.30;65.00
14415;DHT22;7307;50.852;4.314;2022-10-31T00:26:06;22.30;65.10
14415;DHT22;7307;50.852;4.314;2022-10-31T00:28:32;22.30;65.00
14415;DHT22;7307;50.852;4.314;2022-10-31T00:30:59;22.30;65.00
14415;DHT22;7307;50.852;4.314;2022-10-31T00:33:25;22.30;65.00
14415;DHT22;7307;50.852;4.314;2022-10-31T00:35:51;22.30;65.00
14415;DHT22;7307;50.852;4.314;2022-10-31T00:38:16;22.30;65.10
14415;DHT22;7307;50.852;4.314;2022-10-31T00:40:42;22.30;65.10
14415;DHT22;7307;50.852;4.314;2022-10-31T00:43:07;22.30;65.00
14415;DHT22;7307;50.852;4.314;2022-10-31T00:45:33;22.30;65.00
14415;DHT22;7307;50.852;4.314;2022-10-31T00:47:58;22.30;65.00
14415;DHT22;7307;50.852;4.314;2022-10-31T00:50:24;22.20;64.90
14415;DHT22;7307;50.852;4.314;2022-10-31T00:52:50;22.30;65.00
14415;DHT22;7307;50.852;4.314;2022-10-31T00:55:15;22.20;65.00
14415;DHT22;7307;50.852;4.314;2022-10-31T00:57:41;22.20;65.00
14415;DHT22;7307;50.852;4.314;2022-10-31T01:00:07;22.20;65.00
14415;DHT22;7307;50.852;4.314;2022-10-31T01:02:32;22.20;65.00
14415;DHT22;7307;50.852;4.314;2022-10-31T01:04:58;22.20;65.00
14415;DHT22;7307;50.852;4.314;2022-10-31T01:07:23;22.20;65.80
14415;DHT22;7307;50.852;4.314;2022-10-31T01:09:49;22.20;65.00
14415;DHT22;7307;50.852;4.314;2022-10-31T01:12:15;22.20;65.00
14415;DHT22;7307;50.852;4.314;2022-10-31T01:14:44;22.20;65.10
14415;DHT22;7307;50.852;4.314;2022-10-31T01:17:11;22.20;65.00
14415;DHT22;7307;50.852;4.314;2022-10-31T01:19:37;22.20;65.00
14415;DHT22;7307;50.852;4.314;2022-10-31T01:22:03;22.20;65.00
14415;DHT22;7307;50.852;4.314;2022-10-31T01:24:28;22.20;65.00
14415;DHT22;7307;50.852;4.314;2022-10-31T01:26:54;22.20;65.00
14415;DHT22;7307;50.852;4.314;2022-10-31T01:29:19;22.20;65.00
14415;DHT22;7307;50.852;4.314;2022-10-31T01:31:46;22.20;65.10
14415;DHT22;7307;50.852;4.314;2022-10-31T01:34:16;22.20;65.00
14415;DHT22;7307;50.852;4.314;2022-10-31T01:36:44;22.20;65.10
14415;DHT22;7307;50.852;4.314;2022-10-31T01:39:12;22.20;65.10
14415;DHT22;7307;50.852;4.314;2022-10-31T01:41:41;22.20;65.00
14415;DHT22;7307;50.852;4.314;2022-10-31T01:49:28;22.20;65.00
14415;DHT22;7307;50.852;4.314;2022-10-31T01:52:22;22.20;65.00
14415;DHT22;7307;50.852;4.314;2022-10-31T01:55:05;22.20;65.00
14415;DHT22;7307;50.852;4.314;2022-10-31T01:57:33;22.20;65.00
14415;DHT22;7307;50.852;4.314;2022-10-31T02:00:02;22.20;65.10
14415;DHT22;7307;50.852;4.314;2022-10-31T02:02:30;22.20;65.00
14415;DHT22;7307;50.852;4.314;2022-10-31T02:04:57;22.20;65.10
14415;DHT22;7307;50.852;4.314;2022-10-31T02:07:28;22.20;65.10
14415;DHT22;7307;50.852;4.314;2022-10-31T02:09:56;22.20;65.10
14415;DHT22;7307;50.852;4.314;2022-10-31T02:12:22;22.20;65.00
14415;DHT22;7307;50.852;4.314;2022-10-31T02:14:49;22.20;65.00
14415;DHT22;7307;50.852;4.314;2022-10-31T02:17:15;22.20;65.10
14415;DHT22;7307;50.852;4.314;2022-10-31T02:22:41;22.20;65.00
14415;DHT22;7307;50.852;4.314;2022-10-31T02:28:18;22.20;65.10
14415;DHT22;7307;50.852;4.314;2022-10-31T02:31:00;22.20;65.10
14415;DHT22;7307;50.852;4.314;2022-10-31T02:33:51;22.20;65.10
14415;DHT22;7307;50.852;4.314;2022-10-31T02:36:28;22.20;65.10
14415;DHT22;7307;50.852;4.314;2022-10-31T02:39:34;22.10;65.10
14415;DHT22;7307;50.852;4.314;2022-10-31T02:42:18;22.20;65.20
14415;DHT22;7307;50.852;4.314;2022-10-31T02:45:14;22.20;64.60
14415;DHT22;7307;50.852;4.314;2022-10-31T02:47:41;22.10;65.10
14415;DHT22;7307;50.852;4.314;2022-10-31T02:50:26;22.10;65.10
14415;DHT22;7307;50.852;4.314;2022-10-31T02:52:53;22.10;65.30
14415;DHT22;7307;50.852;4.314;2022-10-31T02:57:54;22.10;65.30
14415;DHT22;7307;50.852;4.314;2022-10-31T03:00:20;22.10;65.10
14415;DHT22;7307;50.852;4.314;2022-10-31T03:11:02;22.10;65.10
14415;DHT22;7307;50.852;4.314;2022-10-31T03:18:38;22.10;66.00
14415;DHT22;7307;50.852;4.314;2022-10-31T03:21:10;22.10;65.30
14415;DHT22;7307;50.852;4.314;2022-10-31T03:23:39;22.10;65.20
14415;DHT22;7307;50.852;4.314;2022-10-31T03:26:07;22.10;65.10
14415;DHT22;7307;50.852;4.314;2022-10-31T03:28:54;22.10;65.00
14415;DHT22;7307;50.852;4.314;2022-10-31T03:31:27;22.10;65.20
14415;DHT22;7307;50.852;4.314;2022-10-31T03:33:56;22.10;65.10
14415;DHT22;7307;50.852;4.314;2022-10-31T03:36:24;22.10;65.10
14415;DHT22;7307;50.852;4.314;2022-10-31T03:38:52;22.10;65.20
14415;DHT22;7307;50.852;4.314;2022-10-31T03:41:21;22.10;65.20
14415;DHT22;7307;50.852;4.314;2022-10-31T03:44:02;22.10;65.10
14415;DHT22;7307;50.852;4.314;2022-10-31T03:46:28;22.10;65.20
14415;DHT22;7307;50.852;4.314;2022-10-31T03:48:54;22.10;65.10
14415;DHT22;7307;50.852;4.314;2022-10-31T03:51:31;22.10;65.10
14415;DHT22;7307;50.852;4.314;2022-10-31T03:57:14;22.10;65.10
14415;DHT22;7307;50.852;4.314;2022-10-31T03:59:45;22.10;65.10
14415;DHT22;7307;50.852;4.314;2022-10-31T04:02:16;22.10;65.10
14415;DHT22;7307;50.852;4.314;2022-10-31T04:04:44;22.10;65.20
14415;DHT22;7307;50.852;4.314;2022-10-31T04:07:10;22.10;65.10
14415;DHT22;7307;50.852;4.314;2022-10-31T04:09:39;22.10;65.20
14415;DHT22;7307;50.852;4.314;2022-10-31T04:12:08;22.10;65.20
14415;DHT22;7307;50.852;4.314;2022-10-31T04:14:36;22.10;65.20
14415;DHT22;7307;50.852;4.314;2022-10-31T04:17:06;22.10;65.10
14415;DHT22;7307;50.852;4.314;2022-10-31T04:19:33;22.10;65.20
14415;DHT22;7307;50.852;4.314;2022-10-31T04:21:59;22.10;65.10
14415;DHT22;7307;50.852;4.314;2022-10-31T04:24:25;22.10;65.10
14415;DHT22;7307;50.852;4.314;2022-10-31T04:26:50;22.10;65.10
14415;DHT22;7307;50.852;4.314;2022-10-31T04:29:16;22.10;65.10
14415;DHT22;7307;50.852;4.314;2022-10-31T04:31:42;22.10;65.10
14415;DHT22;7307;50.852;4.314;2022-10-31T04:34:07;22.10;65.10
14415;DHT22;7307;50.852;4.314;2022-10-31T04:36:33;22.10;65.30
14415;DHT22;7307;50.852;4.314;2022-10-31T04:38:59;22.10;65.20
14415;DHT22;7307;50.852;4.314;2022-10-31T04:41:24;22.10;65.20
14415;DHT22;7307;50.852;4.314;2022-10-31T04:43:50;22.00;65.10
14415;DHT22;7307;50.852;4.314;2022-10-31T04:46:15;22.10;65.30
14415;DHT22;7307;50.852;4.314;2022-10-31T04:48:41;22.00;65.20
14415;DHT22;7307;50.852;4.314;2022-10-31T04:51:07;22.00;65.20
14415;DHT22;7307;50.852;4.314;2022-10-31T04:53:32;22.00;65.10
14415;DHT22;7307;50.852;4.314;2022-10-31T04:55:58;22.00;65.30
14415;DHT22;7307;50.852;4.314;2022-10-31T04:58:26;22.00;65.20
14415;DHT22;7307;50.852;4.314;2022-10-31T05:00:55;22.00;65.10
14415;DHT22;7307;50.852;4.314;2022-10-31T05:03:21;22.00;65.30
14415;DHT22;7307;50.852;4.314;2022-10-31T05:05:47;22.00;65.20
14415;DHT22;7307;50.852;4.314;2022-10-31T05:08:13;22.00;65.20
14415;DHT22;7307;50.852;4.314;2022-10-31T05:10:39;22.00;65.20
14415;DHT22;7307;50.852;4.314;2022-10-31T05:13:05;22.00;65.10
14415;DHT22;7307;50.852;4.314;2022-10-31T05:15:31;22.00;65.10
14415;DHT22;7307;50.852;4.314;2022-10-31T05:17:57;22.00;65.20
14415;DHT22;7307;50.852;4.314;2022-10-31T05:20:26;22.00;65.20
14415;DHT22;7307;50.852;4.314;2022-10-31T05:22:54;22.00;65.30
14415;DHT22;7307;50.852;4.314;2022-10-31T05:25:22;22.00;65.30
14415;DHT22;7307;50.852;4.314;2022-10-31T05:27:50;22.00;65.30
14415;DHT22;7307;50.852;4.314;2022-10-31T05:30:18;22.00;65.30
14415;DHT22;7307;50.852;4.314;2022-10-31T05:32:46;22.00;65.30
14415;DHT22;7307;50.852;4.314;2022-10-31T05:35:15;22.00;65.30
14415;DHT22;7307;50.852;4.314;2022-10-31T05:37:41;22.00;65.30
14415;DHT22;7307;50.852;4.314;2022-10-31T05:40:09;22.00;65.30
14415;DHT22;7307;50.852;4.314;2022-10-31T05:42:35;22.00;65.30
14415;DHT22;7307;50.852;4.314;2022-10-31T05:45:01;22.00;65.30
14415;DHT22;7307;50.852;4.314;2022-10-31T05:47:27;22.00;65.30
14415;DHT22;7307;50.852;4.314;2022-10-31T05:49:52;22.00;65.30
14415;DHT22;7307;50.852;4.314;2022-10-31T05:52:18;22.00;65.30
14415;DHT22;7307;50.852;4.314;2022-10-31T05:54:44;22.00;65.30
14415;DHT22;7307;50.852;4.314;2022-10-31T05:57:09;22.00;65.20
14415;DHT22;7307;50.852;4.314;2022-10-31T05:59:35;22.00;65.30
14415;DHT22;7307;50.852;4.314;2022-10-31T06:02:01;22.00;65.20
14415;DHT22;7307;50.852;4.314;2022-10-31T06:04:26;22.00;65.20
14415;DHT22;7307;50.852;4.314;2022-10-31T06:06:52;22.00;65.10
14415;DHT22;7307;50.852;4.314;2022-10-31T06:09:17;22.00;65.10
14415;DHT22;7307;50.852;4.314;2022-10-31T06:11:43;22.00;65.10
14415;DHT22;7307;50.852;4.314;2022-10-31T06:14:09;22.00;65.20
14415;DHT22;7307;50.852;4.314;2022-10-31T06:16:34;22.00;65.10
14415;DHT22;7307;50.852;4.314;2022-10-31T06:19:00;22.00;65.20
14415;DHT22;7307;50.852;4.314;2022-10-31T06:21:25;22.00;65.30
14415;DHT22;7307;50.852;4.314;2022-10-31T06:23:51;22.00;65.30
14415;DHT22;7307;50.852;4.314;2022-10-31T06:26:17;22.00;65.30
14415;DHT22;7307;50.852;4.314;2022-10-31T06:28:42;22.00;65.30
14415;DHT22;7307;50.852;4.314;2022-10-31T06:31:08;22.00;65.30
14415;DHT22;7307;50.852;4.314;2022-10-31T06:33:34;22.00;65.20
14415;DHT22;7307;50.852;4.314;2022-10-31T06:36:00;22.00;65.20
14415;DHT22;7307;50.852;4.314;2022-10-31T06:38:27;22.00;65.30
14415;DHT22;7307;50.852;4.314;2022-10-31T06:40:53;22.00;65.30
14415;DHT22;7307;50.852;4.314;2022-10-31T06:43:23;22.00;65.40
14415;DHT22;7307;50.852;4.314;2022-10-31T06:45:49;22.00;65.50
14415;DHT22;7307;50.852;4.314;2022-10-31T06:48:14;22.00;65.90
14415;DHT22;7307;50.852;4.314;2022-10-31T06:50:40;22.00;65.70
14415;DHT22;7307;50.852;4.314;2022-10-31T06:53:06;22.00;65.80
14415;DHT22;7307;50.852;4.314;2022-10-31T06:55:31;22.00;65.90
14415;DHT22;7307;50.852;4.314;2022-10-31T06:58:00;22.00;66.00
14415;DHT22;7307;50.852;4.314;2022-10-31T07:00:27;22.00;65.80
14415;DHT22;7307;50.852;4.314;2022-10-31T07:02:58;22.00;65.80
14415;DHT22;7307;50.852;4.314;2022-10-31T07:05:24;22.00;65.80
14415;DHT22;7307;50.852;4.314;2022-10-31T07:08:09;22.00;65.80
14415;DHT22;7307;50.852;4.314;2022-10-31T07:10:36;22.00;65.80
14415;DHT22;7307;50.852;4.314;2022-10-31T07:13:04;22.00;65.70
14415;DHT22;7307;50.852;4.314;2022-10-31T07:15:33;22.00;65.90
14415;DHT22;7307;50.852;4.314;2022-10-31T07:18:00;22.00;66.00
14415;DHT22;7307;50.852;4.314;2022-10-31T07:20:30;21.90;65.50
14415;DHT22;7307;50.852;4.314;2022-10-31T07:22:56;22.00;64.80
14415;DHT22;7307;50.852;4.314;2022-10-31T07:25:22;21.90;64.80
14415;DHT22;7307;50.852;4.314;2022-10-31T07:27:48;21.90;65.10
14415;DHT22;7307;50.852;4.314;2022-10-31T07:30:14;21.90;65.30
14415;DHT22;7307;50.852;4.314;2022-10-31T07:32:48;21.90;65.30
14415;DHT22;7307;50.852;4.314;2022-10-31T07:35:16;21.90;66.00
14415;DHT22;7307;50.852;4.314;2022-10-31T07:37:42;21.90;65.50
14415;DHT22;7307;50.852;4.314;2022-10-31T07:40:09;21.90;65.50
14415;DHT22;7307;50.852;4.314;2022-10-31T07:42:36;21.90;65.60
14415;DHT22;7307;50.852;4.314;2022-10-31T07:45:03;21.90;65.40
14415;DHT22;7307;50.852;4.314;2022-10-31T07:47:28;21.90;65.50
14415;DHT22;7307;50.852;4.314;2022-10-31T07:49:54;21.90;65.70
14415;DHT22;7307;50.852;4.314;2022-10-31T07:52:20;21.90;65.60
14415;DHT22;7307;50.852;4.314;2022-10-31T07:54:45;21.90;65.60
14415;DHT22;7307;50.852;4.314;2022-10-31T07:57:11;21.90;65.70
14415;DHT22;7307;50.852;4.314;2022-10-31T07:59:36;21.90;65.70
14415;DHT22;7307;50.852;4.314;2022-10-31T08:02:02;21.90;65.70
14415;DHT22;7307;50.852;4.314;2022-10-31T08:04:28;21.90;65.60
14415;DHT22;7307;50.852;4.314;2022-10-31T08:06:53;21.90;65.60
14415;DHT22;7307;50.852;4.314;2022-10-31T08:09:19;21.90;65.70
14415;DHT22;7307;50.852;4.314;2022-10-31T08:11:44;21.90;65.70
14415;DHT22;7307;50.852;4.314;2022-10-31T08:14:10;21.90;65.70
14415;DHT22;7307;50.852;4.314;2022-10-31T08:16:35;21.90;65.70
14415;DHT22;7307;50.852;4.314;2022-10-31T08:19:01;21.90;65.80
14415;DHT22;7307;50.852;4.314;2022-10-31T08:21:26;21.90;65.80
14415;DHT22;7307;50.852;4.314;2022-10-31T08:23:52;21.90;65.80
14415;DHT22;7307;50.852;4.314;2022-10-31T08:26:18;21.90;65.90
14415;DHT22;7307;50.852;4.314;2022-10-31T08:28:43;21.90;65.90
14415;DHT22;7307;50.852;4.314;2022-10-31T08:31:09;21.90;65.80
14415;DHT22;7307;50.852;4.314;2022-10-31T08:33:35;21.90;65.80
14415;DHT22;7307;50.852;4.314;2022-10-31T08:36:01;21.90;65.90
14415;DHT22;7307;50.852;4.314;2022-10-31T08:38:26;21.90;65.80
14415;DHT22;7307;50.852;4.314;2022-10-31T08:40:52;21.90;66.20
14415;DHT22;7307;50.852;4.314;2022-10-31T08:43:17;21.90;65.80
14415;DHT22;7307;50.852;4.314;2022-10-31T08:45:46;21.90;65.90
14415;DHT22;7307;50.852;4.314;2022-10-31T08:48:14;21.90;66.00
14415;DHT22;7307;50.852;4.314;2022-10-31T08:50:40;21.90;66.00
14415;DHT22;7307;50.852;4.314;2022-10-31T08:55:38;21.90;66.00
14415;DHT22;7307;50.852;4.314;2022-10-31T08:58:05;21.90;66.00
14415;DHT22;7307;50.852;4.314;2022-10-31T09:00:32;21.90;66.00
14415;DHT22;7307;50.852;4.314;2022-10-31T09:02:59;21.90;66.00
14415;DHT22;7307;50.852;4.314;2022-10-31T09:05:25;21.90;66.00
14415;DHT22;7307;50.852;4.314;2022-10-31T09:07:52;21.90;66.00
14415;DHT22;7307;50.852;4.314;2022-10-31T09:10:20;21.90;66.20
14415;DHT22;7307;50.852;4.314;2022-10-31T09:12:45;21.90;66.30
14415;DHT22;7307;50.852;4.314;2022-10-31T09:15:11;21.90;66.20
14415;DHT22;7307;50.852;4.314;2022-10-31T09:17:36;21.90;67.00
14415;DHT22;7307;50.852;4.314;2022-10-31T09:20:02;21.90;66.20
14415;DHT22;7307;50.852;4.314;2022-10-31T09:22:27;21.90;66.20
14415;DHT22;7307;50.852;4.314;2022-10-31T09:24:53;21.90;66.20
14415;DHT22;7307;50.852;4.314;2022-10-31T09:27:19;21.90;66.20
14415;DHT22;7307;50.852;4.314;2022-10-31T09:29:44;21.90;66.20
14415;DHT22;7307;50.852;4.314;2022-10-31T09:32:10;21.90;66.20
14415;DHT22;7307;50.852;4.314;2022-10-31T09:34:35;21.90;66.20
14415;DHT22;7307;50.852;4.314;2022-10-31T09:37:01;21.90;66.20
14415;DHT22;7307;50.852;4.314;2022-10-31T09:39:26;21.90;66.20
14415;DHT22;7307;50.852;4.314;2022-10-31T09:44:53;21.90;66.20
14415;DHT22;7307;50.852;4.314;2022-10-31T09:47:43;21.90;66.10
14415;DHT22;7307;50.852;4.314;2022-10-31T09:50:20;21.90;66.10
14415;DHT22;7307;50.852;4.314;2022-10-31T09:53:08;21.80;66.10
14415;DHT22;7307;50.852;4.314;2022-10-31T09:55:44;21.80;66.10
14415;DHT22;7307;50.852;4.314;2022-10-31T09:58:24;21.80;66.80
14415;DHT22;7307;50.852;4.314;2022-10-31T10:00:51;21.80;66.10
14415;DHT22;7307;50.852;4.314;2022-10-31T10:06:01;21.80;66.00
14415;DHT22;7307;50.852;4.314;2022-10-31T10:08:32;21.80;66.00
14415;DHT22;7307;50.852;4.314;2022-10-31T10:21:52;21.80;66.10
14415;DHT22;7307;50.852;4.314;2022-10-31T10:27:19;21.80;65.90
14415;DHT22;7307;50.852;4.314;2022-10-31T10:30:16;21.80;66.40
14415;DHT22;7307;50.852;4.314;2022-10-31T10:32:56;21.80;66.00
14415;DHT22;7307;50.852;4.314;2022-10-31T10:35:26;21.80;65.90
14415;DHT22;7307;50.852;4.314;2022-10-31T10:38:00;21.80;66.00
14415;DHT22;7307;50.852;4.314;2022-10-31T10:40:28;21.80;66.00
14415;DHT22;7307;50.852;4.314;2022-10-31T10:43:21;21.80;66.00
14415;DHT22;7307;50.852;4.314;2022-10-31T10:51:37;21.80;65.90
14415;DHT22;7307;50.852;4.314;2022-10-31T10:59:32;21.80;65.90
14415;DHT22;7307;50.852;4.314;2022-10-31T11:01:59;21.80;65.90
14415;DHT22;7307;50.852;4.314;2022-10-31T11:04:31;21.80;65.90
14415;DHT22;7307;50.852;4.314;2022-10-31T11:07:08;21.80;65.90
14415;DHT22;7307;50.852;4.314;2022-10-31T11:09:35;21.80;65.80
14415;DHT22;7307;50.852;4.314;2022-10-31T11:12:30;21.80;65.80
14415;DHT22;7307;50.852;4.314;2022-10-31T11:15:07;21.80;65.80
14415;DHT22;7307;50.852;4.314;2022-10-31T11:17:36;21.80;65.80
14415;DHT22;7307;50.852;4.314;2022-10-31T11:20:06;21.80;65.80
14415;DHT22;7307;50.852;4.314;2022-10-31T11:22:44;21.80;65.80
14415;DHT22;7307;50.852;4.314;2022-10-31T11:25:20;21.80;65.80
14415;DHT22;7307;50.852;4.314;2022-10-31T11:27:47;21.80;65.80
14415;DHT22;7307;50.852;4.314;2022-10-31T11:30:13;21.80;65.80
14415;DHT22;7307;50.852;4.314;2022-10-31T11:32:50;21.80;65.80
14415;DHT22;7307;50.852;4.314;2022-10-31T11:35:21;21.80;65.70
14415;DHT22;7307;50.852;4.314;2022-10-31T11:37:49;21.80;65.70
14415;DHT22;7307;50.852;4.314;2022-10-31T11:40:22;21.80;65.70
14415;DHT22;7307;50.852;4.314;2022-10-31T11:42:50;21.80;65.80
14415;DHT22;7307;50.852;4.314;2022-10-31T11:47:49;21.80;65.70
14415;DHT22;7307;50.852;4.314;2022-10-31T11:50:23;21.80;65.70
14415;DHT22;7307;50.852;4.314;2022-10-31T11:52:51;21.80;65.70
14415;DHT22;7307;50.852;4.314;2022-10-31T11:57:57;21.80;65.70
14415;DHT22;7307;50.852;4.314;2022-10-31T12:00:36;21.80;65.70
14415;DHT22;7307;50.852;4.314;2022-10-31T12:06:15;21.80;65.60
14415;DHT22;7307;50.852;4.314;2022-10-31T12:08:43;21.80;65.50
14415;DHT22;7307;50.852;4.314;2022-10-31T12:16:59;21.80;65.60
14415;DHT22;7307;50.852;4.314;2022-10-31T12:22:37;21.80;65.60
14415;DHT22;7307;50.852;4.314;2022-10-31T12:25:33;21.80;65.60
14415;DHT22;7307;50.852;4.314;2022-10-31T12:36:41;21.80;65.50
14415;DHT22;7307;50.852;4.314;2022-10-31T12:41:52;21.80;66.30
14415;DHT22;7307;50.852;4.314;2022-10-31T12:49:54;21.80;65.50
14415;DHT22;7307;50.852;4.314;2022-10-31T12:57:46;21.80;65.20
14415;DHT22;7307;50.852;4.314;2022-10-31T13:00:17;21.90;65.00
14415;DHT22;7307;50.852;4.314;2022-10-31T13:03:05;21.90;64.70
14415;DHT22;7307;50.852;4.314;2022-10-31T13:05:41;21.90;65.30
14415;DHT22;7307;50.852;4.314;2022-10-31T13:08:17;21.90;64.10
14415;DHT22;7307;50.852;4.314;2022-10-31T13:11:16;21.90;64.00
14415;DHT22;7307;50.852;4.314;2022-10-31T13:16:25;21.90;63.70
14415;DHT22;7307;50.852;4.314;2022-10-31T13:19:02;21.90;63.50
14415;DHT22;7307;50.852;4.314;2022-10-31T13:22:09;21.90;63.30
14415;DHT22;7307;50.852;4.314;2022-10-31T13:25:03;22.00;63.20
14415;DHT22;7307;50.852;4.314;2022-10-31T13:30:20;22.00;63.10
14415;DHT22;7307;50.852;4.314;2022-10-31T13:38:32;22.00;62.60
14415;DHT22;7307;50.852;4.314;2022-10-31T13:41:13;22.00;62.80
14415;DHT22;7307;50.852;4.314;2022-10-31T13:46:37;22.10;63.60
14415;DHT22;7307;50.852;4.314;2022-10-31T13:49:04;22.10;64.10
14415;DHT22;7307;50.852;4.314;2022-10-31T13:51:32;22.10;63.90
14415;DHT22;7307;50.852;4.314;2022-10-31T13:54:23;22.10;63.90
14415;DHT22;7307;50.852;4.314;2022-10-31T13:56:56;22.10;63.80
14415;DHT22;7307;50.852;4.314;2022-10-31T13:59:23;22.10;63.70
14415;DHT22;7307;50.852;4.314;2022-10-31T14:01:59;22.20;63.90
14415;DHT22;7307;50.852;4.314;2022-10-31T14:04:56;22.20;63.90
14415;DHT22;7307;50.852;4.314;2022-10-31T14:07:23;22.20;63.80
14415;DHT22;7307;50.852;4.314;2022-10-31T14:12:39;22.20;63.90
14415;DHT22;7307;50.852;4.314;2022-10-31T14:17:57;22.20;64.40
14415;DHT22;7307;50.852;4.314;2022-10-31T14:20:39;22.20;64.20
14415;DHT22;7307;50.852;4.314;2022-10-31T14:28:57;22.20;64.20
14415;DHT22;7307;50.852;4.314;2022-10-31T14:31:34;22.10;64.20
14415;DHT22;7307;50.852;4.314;2022-10-31T14:37:03;22.20;64.30
14415;DHT22;7307;50.852;4.314;2022-10-31T14:50:35;22.20;64.20
14415;DHT22;7307;50.852;4.314;2022-10-31T14:53:05;22.20;64.10
14415;DHT22;7307;50.852;4.314;2022-10-31T14:55:32;22.20;64.20
14415;DHT22;7307;50.852;4.314;2022-10-31T14:58:01;22.20;64.20
14415;DHT22;7307;50.852;4.314;2022-10-31T15:00:31;22.20;64.40
14415;DHT22;7307;50.852;4.314;2022-10-31T15:05:51;22.20;64.50
14415;DHT22;7307;50.852;4.314;2022-10-31T15:08:53;22.20;64.40
14415;DHT22;7307;50.852;4.314;2022-10-31T15:11:26;22.10;64.40
14415;DHT22;7307;50.852;4.314;2022-10-31T15:13:55;22.10;64.50
14415;DHT22;7307;50.852;4.314;2022-10-31T15:16:30;22.10;64.70
14415;DHT22;7307;50.852;4.314;2022-10-31T15:18:59;22.10;64.80
14415;DHT22;7307;50.852;4.314;2022-10-31T15:21:27;22.10;64.60
14415;DHT22;7307;50.852;4.314;2022-10-31T15:23:58;22.10;64.60
14415;DHT22;7307;50.852;4.314;2022-10-31T15:26:35;22.10;64.70
14415;DHT22;7307;50.852;4.314;2022-10-31T15:29:05;22.10;64.60
14415;DHT22;7307;50.852;4.314;2022-10-31T15:31:32;22.10;64.60
14415;DHT22;7307;50.852;4.314;2022-10-31T15:34:16;22.10;64.60
14415;DHT22;7307;50.852;4.314;2022-10-31T15:36:48;22.10;64.50
14415;DHT22;7307;50.852;4.314;2022-10-31T15:39:14;22.10;64.50
14415;DHT22;7307;50.852;4.314;2022-10-31T15:41:51;22.10;64.70
14415;DHT22;7307;50.852;4.314;2022-10-31T15:44:33;22.10;64.80
14415;DHT22;7307;50.852;4.314;2022-10-31T15:47:05;22.10;64.80
14415;DHT22;7307;50.852;4.314;2022-10-31T15:52:32;22.10;64.70
14415;DHT22;7307;50.852;4.314;2022-10-31T15:55:25;22.10;65.00
14415;DHT22;7307;50.852;4.314;2022-10-31T15:57:56;22.10;64.80
14415;DHT22;7307;50.852;4.314;2022-10-31T16:00:34;22.10;64.90
14415;DHT22;7307;50.852;4.314;2022-10-31T16:03:04;22.10;65.00
14415;DHT22;7307;50.852;4.314;2022-10-31T16:05:44;22.00;65.00
14415;DHT22;7307;50.852;4.314;2022-10-31T16:11:16;22.00;65.30
14415;DHT22;7307;50.852;4.314;2022-10-31T16:16:17;22.00;65.30
14415;DHT22;7307;50.852;4.314;2022-10-31T16:18:46;22.00;65.40
14415;DHT22;7307;50.852;4.314;2022-10-31T16:21:15;22.00;65.30
14415;DHT22;7307;50.852;4.314;2022-10-31T16:23:53;22.00;65.40
14415;DHT22;7307;50.852;4.314;2022-10-31T16:26:20;22.00;65.30
14415;DHT22;7307;50.852;4.314;2022-10-31T16:28:56;22.00;65.30
14415;DHT22;7307;50.852;4.314;2022-10-31T16:31:35;22.00;65.50
14415;DHT22;7307;50.852;4.314;2022-10-31T16:34:14;22.00;65.40
14415;DHT22;7307;50.852;4.314;2022-10-31T16:36:40;22.00;66.00
14415;DHT22;7307;50.852;4.314;2022-10-31T16:39:06;22.00;65.00
14415;DHT22;7307;50.852;4.314;2022-10-31T16:41:34;22.00;65.10
14415;DHT22;7307;50.852;4.314;2022-10-31T16:44:19;22.00;65.10
14415;DHT22;7307;50.852;4.314;2022-10-31T16:46:48;22.00;65.30
14415;DHT22;7307;50.852;4.314;2022-10-31T16:49:24;22.00;65.30
14415;DHT22;7307;50.852;4.314;2022-10-31T16:51:50;22.00;65.30
14415;DHT22;7307;50.852;4.314;2022-10-31T16:54:17;22.00;65.20
14415;DHT22;7307;50.852;4.314;2022-10-31T16:56:43;22.00;65.30
14415;DHT22;7307;50.852;4.314;2022-10-31T16:59:11;22.00;65.30
14415;DHT22;7307;50.852;4.314;2022-10-31T17:01:39;22.00;65.40
14415;DHT22;7307;50.852;4.314;2022-10-31T17:04:11;22.00;65.40
14415;DHT22;7307;50.852;4.314;2022-10-31T17:06:38;22.00;65.50
14415;DHT22;7307;50.852;4.314;2022-10-31T17:09:04;22.00;65.40
14415;DHT22;7307;50.852;4.314;2022-10-31T17:11:29;22.10;65.60
14415;DHT22;7307;50.852;4.314;2022-10-31T17:13:55;22.00;65.50
14415;DHT22;7307;50.852;4.314;2022-10-31T17:16:22;22.00;65.50
14415;DHT22;7307;50.852;4.314;2022-10-31T17:18:47;22.00;65.50
14415;DHT22;7307;50.852;4.314;2022-10-31T17:21:18;22.00;65.50
14415;DHT22;7307;50.852;4.314;2022-10-31T17:23:45;22.00;65.50
14415;DHT22;7307;50.852;4.314;2022-10-31T17:26:11;22.00;65.50
14415;DHT22;7307;50.852;4.314;2022-10-31T17:28:37;22.00;65.50
14415;DHT22;7307;50.852;4.314;2022-10-31T17:31:02;22.00;65.50
14415;DHT22;7307;50.852;4.314;2022-10-31T17:33:28;22.00;65.50
14415;DHT22;7307;50.852;4.314;2022-10-31T17:35:53;22.00;65.50
14415;DHT22;7307;50.852;4.314;2022-10-31T17:38:19;22.00;65.50
14415;DHT22;7307;50.852;4.314;2022-10-31T17:40:45;22.00;65.50
14415;DHT22;7307;50.852;4.314;2022-10-31T17:43:11;22.00;65.40
14415;DHT22;7307;50.852;4.314;2022-10-31T17:45:41;22.00;65.40
14415;DHT22;7307;50.852;4.314;2022-10-31T17:48:08;22.00;65.40
14415;DHT22;7307;50.852;4.314;2022-10-31T17:50:35;22.00;65.50
14415;DHT22;7307;50.852;4.314;2022-10-31T17:53:00;22.00;65.40
14415;DHT22;7307;50.852;4.314;2022-10-31T17:55:26;22.00;65.40
14415;DHT22;7307;50.852;4.314;2022-10-31T17:57:52;22.00;65.40
14415;DHT22;7307;50.852;4.314;2022-10-31T18:00:18;22.00;65.40
14415;DHT22;7307;50.852;4.314;2022-10-31T18:02:46;22.00;65.30
14415;DHT22;7307;50.852;4.314;2022-10-31T18:05:12;22.00;65.30
14415;DHT22;7307;50.852;4.314;2022-10-31T18:07:38;22.00;65.40
14415;DHT22;7307;50.852;4.314;2022-10-31T18:10:04;22.00;65.40
14415;DHT22;7307;50.852;4.314;2022-10-31T18:12:30;22.00;65.40
14415;DHT22;7307;50.852;4.314;2022-10-31T18:14:59;22.00;65.30
14415;DHT22;7307;50.852;4.314;2022-10-31T18:17:25;22.00;65.30
14415;DHT22;7307;50.852;4.314;2022-10-31T18:19:50;22.00;65.30
14415;DHT22;7307;50.852;4.314;2022-10-31T18:22:16;21.90;65.30
14415;DHT22;7307;50.852;4.314;2022-10-31T18:24:42;22.00;65.40
14415;DHT22;7307;50.852;4.314;2022-10-31T18:27:07;21.90;65.30
14415;DHT22;7307;50.852;4.314;2022-10-31T18:29:33;21.90;65.30
14415;DHT22;7307;50.852;4.314;2022-10-31T18:31:58;22.00;65.30
14415;DHT22;7307;50.852;4.314;2022-10-31T18:34:24;21.90;65.20